createdAt,value
2018-12-26T00:03:38.803Z,31.70
2018-12-26T00:08:51.263Z,24.30
2018-12-26T00:14:00.881Z,24.07
2018-12-26T00:19:04.571Z,25.60
2018-12-26T00:24:10.880Z,28.57
2018-12-26T00:29:17.502Z,25.10
2018-12-26T00:34:21.491Z,24.17
2018-12-26T00:39:25.153Z,23.50
2018-12-26T00:44:28.775Z,22.27
2018-12-26T00:49:34.006Z,23.03
2018-12-26T00:54:39.280Z,25.90
2018-12-26T00:59:42.881Z,29.27
2018-12-26T01:04:49.269Z,24.30
2018-12-26T01:09:54.553Z,26.20
2018-12-26T01:15:04.067Z,23.50
2018-12-26T01:20:08.241Z,24.70
2018-12-26T01:25:11.843Z,23.43
2018-12-26T01:30:17.923Z,24.23
2018-12-26T01:35:23.243Z,20.63
2018-12-26T01:40:26.851Z,23.73
2018-12-26T01:45:37.907Z,24.90
2018-12-26T01:50:44.289Z,25.23
2018-12-26T01:55:48.245Z,24.47
2018-12-26T02:00:57.978Z,26.90
2018-12-26T02:06:03.301Z,21.53
2018-12-26T02:11:08.596Z,25.00
2018-12-26T02:16:12.290Z,23.13
2018-12-26T02:21:15.898Z,21.93
2018-12-26T02:26:22.220Z,25.07
2018-12-26T02:31:36.161Z,26.50
2018-12-26T02:36:32.941Z,23.50
2018-12-26T02:41:36.557Z,23.20
2018-12-26T02:46:40.166Z,25.97
2018-12-26T02:51:46.875Z,26.77
2018-12-26T02:56:53.233Z,26.43
2018-12-26T03:01:59.842Z,25.77
2018-12-26T03:07:04.255Z,28.10
2018-12-26T03:12:07.873Z,26.43
2018-12-26T03:17:18.558Z,27.57
2018-12-26T03:22:23.793Z,25.30
2018-12-26T03:27:27.406Z,30.50
2018-12-26T03:32:32.640Z,29.43
2018-12-26T03:37:36.273Z,28.57
2018-12-26T03:42:45.731Z,28.97
2018-12-26T03:47:52.334Z,25.70
2018-12-26T03:52:56.857Z,29.77
2018-12-26T03:58:03.255Z,30.17
2018-12-26T04:03:08.567Z,31.80
2018-12-26T04:08:12.256Z,30.37
2018-12-26T04:13:18.498Z,31.50
2018-12-26T04:18:22.195Z,32.17
2018-12-26T04:23:27.447Z,31.23
2018-12-26T04:28:32.779Z,32.83
2018-12-26T04:33:36.391Z,35.30
2018-12-26T04:38:41.653Z,33.93
2018-12-26T04:43:46.906Z,34.70
2018-12-26T04:48:53.231Z,31.67
2018-12-26T04:53:56.838Z,29.20
2018-12-26T04:59:00.461Z,32.80
2018-12-26T05:04:05.143Z,28.20
2018-12-26T05:09:13.310Z,30.60
2018-12-26T05:14:17.102Z,28.60
2018-12-26T05:19:20.717Z,29.07
2018-12-26T05:24:24.668Z,31.23
2018-12-26T05:29:28.303Z,28.77
2018-12-26T05:34:31.911Z,32.23
2018-12-26T05:39:35.526Z,28.83
2018-12-26T05:44:41.874Z,33.80
2018-12-26T05:49:45.514Z,28.63
2018-12-26T05:54:54.890Z,28.70
2018-12-26T06:00:01.292Z,30.00
2018-12-26T06:05:09.631Z,26.77
2018-12-26T06:10:13.350Z,30.57
2018-12-26T06:15:17.374Z,31.10
2018-12-26T06:20:21.000Z,35.67
2018-12-26T06:25:24.613Z,32.43
2018-12-26T06:30:28.266Z,34.43
2018-12-26T06:35:34.786Z,32.10
2018-12-26T06:40:38.386Z,31.40
2018-12-26T06:45:47.654Z,30.47
2018-12-26T06:50:50.708Z,31.50
2018-12-26T06:55:58.178Z,30.03
2018-12-26T07:01:03.424Z,29.83
2018-12-26T07:06:13.140Z,27.40
2018-12-26T07:11:19.444Z,29.97
2018-12-26T07:16:23.056Z,34.30
2018-12-26T07:21:26.668Z,33.17
2018-12-26T07:26:30.278Z,33.73
2018-12-26T07:31:36.834Z,32.63
2018-12-26T07:36:40.446Z,30.80
2018-12-26T07:41:44.063Z,31.20
2018-12-26T07:46:58.786Z,38.03
2018-12-26T07:52:02.403Z,36.43
2018-12-26T07:57:10.251Z,33.60
2018-12-26T08:02:13.879Z,37.57
2018-12-26T08:07:19.062Z,35.80
2018-12-26T08:12:22.756Z,34.03
2018-12-26T08:17:26.391Z,33.83
2018-12-26T08:22:32.742Z,33.10
2018-12-26T08:27:40.732Z,36.00
2018-12-26T08:32:50.076Z,39.80
2018-12-26T08:37:59.330Z,34.67
2018-12-26T08:43:02.971Z,35.93
2018-12-26T08:48:09.300Z,35.07
2018-12-26T08:53:14.825Z,36.50
2018-12-26T08:58:25.597Z,31.47
2018-12-26T09:03:29.239Z,34.70
2018-12-26T09:08:32.875Z,33.60
2018-12-26T09:13:37.530Z,34.40
2018-12-26T09:18:41.108Z,31.00
2018-12-26T09:23:49.290Z,29.80
2018-12-26T09:28:53.415Z,35.03
2018-12-26T09:33:57.036Z,34.57
2018-12-26T09:39:02.335Z,32.90
2018-12-26T09:44:06.664Z,29.83
2018-12-26T09:49:13.204Z,31.60
2018-12-26T09:54:16.817Z,31.67
2018-12-26T09:59:23.153Z,32.80
2018-12-26T10:04:26.801Z,31.73
2018-12-26T10:09:30.527Z,34.33
2018-12-26T10:14:35.449Z,32.40
2018-12-26T10:19:40.700Z,29.40
2018-12-26T10:24:45.989Z,37.33
2018-12-26T10:29:56.161Z,32.23
2018-12-26T10:34:55.488Z,32.73
2018-12-26T10:40:01.794Z,33.83
2018-12-26T10:45:06.277Z,34.87
2018-12-26T10:50:14.864Z,34.47
2018-12-26T10:55:18.476Z,32.77
2018-12-26T11:00:22.095Z,32.30
2018-12-26T11:05:29.585Z,31.30
2018-12-26T11:10:32.729Z,28.67
2018-12-26T11:15:36.509Z,37.77
2018-12-26T11:20:40.137Z,38.10
2018-12-26T11:25:43.800Z,28.77
2018-12-26T11:30:51.613Z,30.37
2018-12-26T11:35:55.397Z,30.33
2018-12-26T11:40:59.081Z,30.13
2018-12-26T11:46:05.803Z,29.87
2018-12-26T11:51:09.451Z,31.53
2018-12-26T11:56:13.071Z,31.33
2018-12-26T12:01:18.327Z,28.60
2018-12-26T12:06:22.043Z,28.70
2018-12-26T12:11:28.631Z,24.50
2018-12-26T12:16:35.532Z,30.37
2018-12-26T12:21:42.125Z,27.77
2018-12-26T12:26:45.792Z,26.33
2018-12-26T12:31:51.816Z,31.07
2018-12-26T12:36:59.141Z,26.10
2018-12-26T12:42:02.926Z,26.30
2018-12-26T12:47:08.203Z,30.80
2018-12-26T12:52:11.827Z,29.03
2018-12-26T12:57:16.254Z,30.10
2018-12-26T13:02:22.951Z,29.70
2018-12-26T13:07:26.569Z,34.50
2018-12-26T13:12:34.839Z,28.63
2018-12-26T13:17:40.068Z,30.20
2018-12-26T13:22:43.741Z,29.83
2018-12-26T13:27:50.107Z,26.20
2018-12-26T13:32:55.361Z,26.57
2018-12-26T13:38:00.783Z,27.57
2018-12-26T13:43:06.058Z,25.80
2018-12-26T13:48:11.318Z,25.00
2018-12-26T13:53:15.095Z,28.70
2018-12-26T13:58:22.433Z,26.60
2018-12-26T14:03:26.084Z,26.07
2018-12-26T14:08:35.244Z,26.07
2018-12-26T14:13:38.854Z,24.70
2018-12-26T14:18:51.218Z,26.07
2018-12-26T14:23:57.779Z,26.67
2018-12-26T14:29:01.432Z,27.90
2018-12-26T14:34:05.071Z,29.50
2018-12-26T14:39:08.853Z,25.80
2018-12-26T14:44:15.228Z,28.73
2018-12-26T14:49:18.860Z,29.90
2018-12-26T14:54:22.548Z,27.10
2018-12-26T14:59:26.255Z,28.30
2018-12-26T15:04:33.208Z,25.80
2018-12-26T15:09:41.646Z,24.43
2018-12-26T15:14:49.806Z,26.47
2018-12-26T15:19:53.700Z,28.57
2018-12-26T15:24:57.338Z,27.80
2018-12-26T15:30:02.685Z,26.80
2018-12-26T15:35:08.258Z,27.03
2018-12-26T15:40:15.342Z,28.90
2018-12-26T15:45:29.723Z,34.73
2018-12-26T15:50:26.358Z,28.60
2018-12-26T15:55:30.140Z,31.73
2018-12-26T16:00:37.461Z,26.93
2018-12-26T16:05:45.429Z,28.23
2018-12-26T16:10:49.342Z,28.47
2018-12-26T16:15:52.970Z,31.50
2018-12-26T16:20:59.256Z,30.23
2018-12-26T16:26:08.472Z,29.77
2018-12-26T16:31:15.414Z,30.40
2018-12-26T16:36:19.169Z,33.17
2018-12-26T16:41:23.089Z,33.97
2018-12-26T16:46:30.512Z,31.80
2018-12-26T16:51:34.059Z,35.03
2018-12-26T16:56:40.378Z,29.53
2018-12-26T17:01:44.267Z,35.73
2018-12-26T17:06:53.591Z,35.30
2018-12-26T17:11:57.261Z,34.43
2018-12-26T17:17:00.862Z,35.53
2018-12-26T17:22:08.512Z,32.93
2018-12-26T17:27:14.952Z,36.50
2018-12-26T17:32:18.578Z,32.57
2018-12-26T17:37:22.181Z,57.27
2018-12-26T17:42:25.779Z,36.90
2018-12-26T17:47:32.266Z,36.33
2018-12-26T17:52:39.977Z,36.40
2018-12-26T17:57:50.859Z,35.20
2018-12-26T18:03:00.294Z,34.73
2018-12-26T18:08:03.995Z,33.43
2018-12-26T18:13:11.464Z,37.50
2018-12-26T18:18:18.407Z,38.13
2018-12-26T18:23:23.689Z,41.23
2018-12-26T18:28:27.473Z,35.93
2018-12-26T18:33:34.130Z,42.40
2018-12-26T18:38:37.818Z,47.83
2018-12-26T18:43:46.452Z,42.03
2018-12-26T18:48:48.591Z,39.30
2018-12-26T18:53:54.922Z,39.83
2018-12-26T18:59:01.571Z,41.10
2018-12-26T19:04:07.906Z,40.87
2018-12-26T19:09:11.546Z,42.57
2018-12-26T19:14:18.054Z,40.77
2018-12-26T19:19:23.388Z,40.27
2018-12-26T19:24:27.209Z,42.63
2018-12-26T19:29:31.268Z,40.00
2018-12-26T19:34:34.864Z,42.87
2018-12-26T19:39:43.743Z,39.20
2018-12-26T19:44:50.398Z,40.53
2018-12-26T19:50:04.553Z,41.30
2018-12-26T19:55:00.943Z,44.83
2018-12-26T20:00:06.021Z,41.90
2018-12-26T20:05:12.373Z,41.53
2018-12-26T20:10:17.852Z,43.57
2018-12-26T20:15:23.118Z,38.07
2018-12-26T20:20:29.418Z,43.90
2018-12-26T20:25:33.053Z,41.93
2018-12-26T20:30:36.695Z,41.30
2018-12-26T20:35:42.983Z,40.53
2018-12-26T20:40:51.821Z,38.77
2018-12-26T20:46:00.021Z,42.90
2018-12-26T20:51:05.035Z,38.80
2018-12-26T20:56:11.686Z,48.80
2018-12-26T21:01:17.814Z,39.83
2018-12-26T21:06:23.144Z,45.53
2018-12-26T21:11:29.662Z,40.97
2018-12-26T21:16:33.295Z,44.40
2018-12-26T21:21:42.714Z,39.93
2018-12-26T21:26:48.142Z,45.60
2018-12-26T21:31:52.413Z,47.03
2018-12-26T21:36:58.966Z,42.60
2018-12-26T21:42:03.743Z,45.97
2018-12-26T21:47:17.011Z,41.03
2018-12-26T21:52:23.575Z,40.40
2018-12-26T21:57:28.316Z,47.23
2018-12-26T22:02:31.983Z,40.87
2018-12-26T22:07:35.627Z,42.03
2018-12-26T22:12:45.093Z,41.23
2018-12-26T22:17:50.351Z,39.50
2018-12-26T22:22:55.606Z,38.70
2018-12-26T22:27:59.506Z,45.43
2018-12-26T22:33:09.389Z,40.67
2018-12-26T22:38:15.088Z,42.50
2018-12-26T22:43:21.798Z,47.23
2018-12-26T22:48:25.863Z,40.53
2018-12-26T22:53:29.479Z,43.53
2018-12-26T22:58:36.030Z,48.33
2018-12-26T23:03:39.830Z,43.70
2018-12-26T23:08:43.447Z,47.67
2018-12-26T23:13:47.338Z,45.77
2018-12-26T23:18:51.025Z,50.97
2018-12-26T23:24:09.472Z,45.70
2018-12-26T23:29:19.324Z,47.90
2018-12-26T23:34:22.936Z,47.60
2018-12-26T23:39:28.467Z,52.60
2018-12-26T23:44:33.441Z,47.47
2018-12-26T23:49:37.230Z,47.87
2018-12-26T23:54:40.859Z,45.73
2018-12-26T23:59:44.491Z,54.87
